createdAt,value
2022-12-08T00:00:50.842Z,3.40
2022-12-08T00:03:17.952Z,3.42
2022-12-08T00:06:08.028Z,3.36
2022-12-08T00:08:53.339Z,3.26
2022-12-08T00:11:20.314Z,3.17
2022-12-08T00:13:47.156Z,3.16
2022-12-08T00:16:14.817Z,3.20
2022-12-08T00:18:41.702Z,3.18
2022-12-08T00:21:08.830Z,3.12
2022-12-08T00:23:35.703Z,3.07
2022-12-08T00:26:06.884Z,3.13
2022-12-08T00:28:34.649Z,3.21
2022-12-08T00:31:08.726Z,3.22
2022-12-08T00:33:35.741Z,3.27
2022-12-08T00:36:10.762Z,3.29
2022-12-08T00:38:38.962Z,3.28
2022-12-08T00:41:17.422Z,3.30
2022-12-08T00:43:44.623Z,3.28
2022-12-08T00:46:12.207Z,3.31
2022-12-08T00:48:39.346Z,3.36
2022-12-08T00:51:06.740Z,3.41
2022-12-08T00:53:33.548Z,3.43
2022-12-08T00:56:00.532Z,3.46
2022-12-08T00:58:27.450Z,3.46
2022-12-08T01:00:54.311Z,3.49
2022-12-08T01:03:21.356Z,3.48
2022-12-08T01:05:48.265Z,3.49
2022-12-08T01:08:15.116Z,3.52
2022-12-08T01:10:42.788Z,3.50
2022-12-08T01:13:09.720Z,3.51
2022-12-08T01:15:37.149Z,3.48
2022-12-08T01:18:04.230Z,3.38
2022-12-08T01:20:31.171Z,3.25
2022-12-08T01:22:57.956Z,3.18
2022-12-08T01:25:24.756Z,3.11
2022-12-08T01:27:52.715Z,3.12
2022-12-08T01:30:20.398Z,3.11
2022-12-08T01:32:47.471Z,3.08
2022-12-08T01:35:14.843Z,3.04
2022-12-08T01:37:41.678Z,3.03
2022-12-08T01:40:08.905Z,2.99
2022-12-08T01:42:38.388Z,3.02
2022-12-08T01:45:21.332Z,3.01
2022-12-08T01:47:52.535Z,2.98
2022-12-08T01:50:20.770Z,3.04
2022-12-08T01:52:52.378Z,3.07
2022-12-08T01:55:36.896Z,3.02
2022-12-08T01:58:13.462Z,2.90
2022-12-08T02:00:40.484Z,2.87
2022-12-08T02:03:12.031Z,2.84
2022-12-08T02:05:40.542Z,2.81
2022-12-08T02:08:10.284Z,2.89
2022-12-08T02:10:40.464Z,2.95
2022-12-08T02:13:11.176Z,3.01
2022-12-08T02:16:08.982Z,3.01
2022-12-08T02:18:42.970Z,3.06
2022-12-08T02:21:28.862Z,3.06
2022-12-08T02:24:35.255Z,3.07
2022-12-08T02:27:28.080Z,3.07
2022-12-08T02:30:10.207Z,3.09
2022-12-08T02:33:09.469Z,3.13
2022-12-08T02:35:38.998Z,3.14
2022-12-08T02:38:29.583Z,3.11
2022-12-08T02:41:17.520Z,3.09
2022-12-08T02:44:06.750Z,3.00
2022-12-08T02:46:57.433Z,3.04
2022-12-08T02:49:32.856Z,3.12
2022-12-08T02:52:28.862Z,3.09
2022-12-08T02:55:24.652Z,3.01
2022-12-08T02:57:56.966Z,2.94
2022-12-08T03:00:27.765Z,2.83
2022-12-08T03:03:23.843Z,2.69
2022-12-08T03:06:05.752Z,2.58
2022-12-08T03:08:38.861Z,2.50
2022-12-08T03:11:45.237Z,2.37
2022-12-08T03:14:16.978Z,2.30
2022-12-08T03:16:48.806Z,2.19
2022-12-08T03:19:24.335Z,2.06
2022-12-08T03:22:00.417Z,1.98
2022-12-08T03:24:27.631Z,1.97
2022-12-08T03:27:05.650Z,1.98
2022-12-08T03:29:33.372Z,2.03
2022-12-08T03:32:20.395Z,2.08
2022-12-08T03:34:49.530Z,2.14
2022-12-08T03:37:16.908Z,2.18
2022-12-08T03:39:44.517Z,2.22
2022-12-08T03:42:11.326Z,2.30
2022-12-08T03:44:38.155Z,2.33
2022-12-08T03:47:05.418Z,2.40
2022-12-08T03:49:32.244Z,2.36
2022-12-08T03:51:59.178Z,2.38
2022-12-08T03:54:26.209Z,2.37
2022-12-08T03:56:52.998Z,2.32
2022-12-08T03:59:20.079Z,2.37
2022-12-08T04:01:46.943Z,2.42
2022-12-08T04:04:14.343Z,2.47
2022-12-08T04:06:41.130Z,2.49
2022-12-08T04:09:07.979Z,2.51
2022-12-08T04:11:34.789Z,2.52
2022-12-08T04:14:01.792Z,2.47
2022-12-08T04:16:28.968Z,2.41
2022-12-08T04:18:55.990Z,2.38
2022-12-08T04:21:23.018Z,2.40
2022-12-08T04:23:49.945Z,2.43
2022-12-08T04:26:16.861Z,2.47
2022-12-08T04:28:43.743Z,2.45
2022-12-08T04:31:10.847Z,2.37
2022-12-08T04:33:37.862Z,2.51
2022-12-08T04:36:05.833Z,2.46
2022-12-08T04:38:33.670Z,2.48
2022-12-08T04:41:01.235Z,2.51
2022-12-08T04:43:28.414Z,2.40
2022-12-08T04:45:55.305Z,2.26
2022-12-08T04:48:22.176Z,2.13
2022-12-08T04:50:49.216Z,2.04
2022-12-08T04:53:16.111Z,2.01
2022-12-08T04:55:44.825Z,2.00
2022-12-08T04:58:16.592Z,1.99
2022-12-08T05:00:44.377Z,2.00
2022-12-08T05:03:11.313Z,2.06
2022-12-08T05:05:38.217Z,2.07
2022-12-08T05:08:05.786Z,2.11
2022-12-08T05:10:33.117Z,2.10
2022-12-08T05:13:00.956Z,2.16
2022-12-08T05:15:28.132Z,2.20
2022-12-08T05:17:56.345Z,2.24
2022-12-08T05:20:23.351Z,2.24
2022-12-08T05:22:50.248Z,2.21
2022-12-08T05:25:17.262Z,2.22
2022-12-08T05:27:44.269Z,2.21
2022-12-08T05:30:11.461Z,2.21
2022-12-08T05:32:38.305Z,2.20
2022-12-08T05:35:05.713Z,2.20
2022-12-08T05:37:32.978Z,2.25
2022-12-08T05:40:00.466Z,2.32
2022-12-08T05:42:27.374Z,2.29
2022-12-08T05:44:54.271Z,2.26
2022-12-08T05:47:21.271Z,2.28
2022-12-08T05:49:48.419Z,2.29
2022-12-08T05:52:16.922Z,2.22
2022-12-08T05:54:44.362Z,2.16
2022-12-08T05:57:11.665Z,2.17
2022-12-08T05:59:39.170Z,2.26
2022-12-08T06:02:06.715Z,2.34
2022-12-08T06:04:33.644Z,2.36
2022-12-08T06:07:00.442Z,2.30
2022-12-08T06:09:27.840Z,2.25
2022-12-08T06:11:54.812Z,2.15
2022-12-08T06:14:21.743Z,2.08
2022-12-08T06:16:48.570Z,1.93
2022-12-08T06:19:15.996Z,1.83
2022-12-08T06:21:43.040Z,1.72
2022-12-08T06:24:09.913Z,1.65
2022-12-08T06:26:37.070Z,1.59
2022-12-08T06:29:04.961Z,1.52
2022-12-08T06:31:32.549Z,1.45
2022-12-08T06:33:59.506Z,1.34
2022-12-08T06:36:28.336Z,1.28
2022-12-08T06:38:55.613Z,1.19
2022-12-08T06:41:22.495Z,1.09
2022-12-08T06:43:49.299Z,1.03
2022-12-08T06:46:19.020Z,0.96
2022-12-08T06:48:46.468Z,0.92
2022-12-08T06:51:16.027Z,0.90
2022-12-08T06:53:44.170Z,0.83
2022-12-08T06:56:12.454Z,0.84
2022-12-08T06:58:39.438Z,0.90
2022-12-08T07:01:09.712Z,0.93
2022-12-08T07:03:37.591Z,0.88
2022-12-08T07:06:05.181Z,0.83
2022-12-08T07:08:34.888Z,0.74
2022-12-08T07:11:09.771Z,0.60
2022-12-08T07:13:37.140Z,0.52
2022-12-08T07:16:11.900Z,0.46
2022-12-08T07:18:39.674Z,0.44
2022-12-08T07:21:09.206Z,0.42
2022-12-08T07:23:36.613Z,0.37
2022-12-08T07:26:06.008Z,0.40
2022-12-08T07:28:34.619Z,0.42
2022-12-08T07:31:01.761Z,0.39
2022-12-08T07:33:29.386Z,0.41
2022-12-08T07:35:58.577Z,0.37
2022-12-08T07:38:25.709Z,0.33
2022-12-08T07:40:53.166Z,0.33
2022-12-08T07:43:20.762Z,0.31
2022-12-08T07:45:47.843Z,0.29
2022-12-08T07:48:14.810Z,0.29
2022-12-08T07:50:41.779Z,0.30
2022-12-08T07:53:09.161Z,0.31
2022-12-08T07:55:40.710Z,0.38
2022-12-08T07:58:07.995Z,0.46
2022-12-08T08:00:34.997Z,0.49
2022-12-08T08:03:02.795Z,0.50
2022-12-08T08:05:29.888Z,0.54
2022-12-08T08:07:56.722Z,0.57
2022-12-08T08:10:23.717Z,0.65
2022-12-08T08:12:50.681Z,0.68
2022-12-08T08:15:19.235Z,0.67
2022-12-08T08:17:53.614Z,0.59
2022-12-08T08:20:21.433Z,0.59
2022-12-08T08:22:50.134Z,0.62
2022-12-08T08:25:22.958Z,0.57
2022-12-08T08:27:49.864Z,0.55
2022-12-08T08:30:20.706Z,0.52
2022-12-08T08:32:49.180Z,0.50
2022-12-08T08:35:16.461Z,0.54
2022-12-08T08:37:48.495Z,0.64
2022-12-08T08:40:17.250Z,0.80
2022-12-08T08:42:43.999Z,0.97
2022-12-08T08:45:11.276Z,1.18
2022-12-08T08:47:38.222Z,1.28
2022-12-08T08:50:07.903Z,1.36
2022-12-08T08:52:34.941Z,1.48
2022-12-08T08:55:03.988Z,1.56
2022-12-08T08:57:30.798Z,1.59
2022-12-08T08:59:57.602Z,1.60
2022-12-08T09:02:25.473Z,1.62
2022-12-08T09:04:53.086Z,1.61
2022-12-08T09:07:20.102Z,1.62
2022-12-08T09:09:47.033Z,1.47
2022-12-08T09:12:14.018Z,1.40
2022-12-08T09:14:42.267Z,1.28
2022-12-08T09:17:09.216Z,1.22
2022-12-08T09:19:36.075Z,1.19
2022-12-08T09:22:03.076Z,1.18
2022-12-08T09:24:29.964Z,1.16
2022-12-08T09:26:56.951Z,1.15
2022-12-08T09:29:24.540Z,1.14
2022-12-08T09:31:52.061Z,1.16
2022-12-08T09:34:18.898Z,1.18
2022-12-08T09:36:45.756Z,1.25
2022-12-08T09:39:12.865Z,1.31
2022-12-08T09:41:49.910Z,1.37
2022-12-08T09:44:31.716Z,1.53
2022-12-08T09:47:00.864Z,1.59
2022-12-08T09:49:38.380Z,1.69
2022-12-08T09:52:12.882Z,1.76
2022-12-08T09:54:39.893Z,1.84
2022-12-08T09:57:15.373Z,1.96
2022-12-08T09:59:48.259Z,2.07
2022-12-08T10:02:23.819Z,2.05
2022-12-08T10:04:51.329Z,2.10
2022-12-08T10:07:38.073Z,2.14
2022-12-08T10:10:32.157Z,2.31
2022-12-08T10:13:17.568Z,2.38
2022-12-08T10:16:21.185Z,2.45
2022-12-08T10:19:17.529Z,2.50
2022-12-08T10:21:45.176Z,2.60
2022-12-08T10:24:22.947Z,2.65
2022-12-08T10:26:50.100Z,2.68
2022-12-08T10:29:17.170Z,2.63
2022-12-08T10:31:45.663Z,2.69
2022-12-08T10:34:21.945Z,2.74
2022-12-08T10:36:52.235Z,2.84
2022-12-08T10:39:45.674Z,2.91
2022-12-08T10:42:18.631Z,3.04
2022-12-08T10:44:57.763Z,3.15
2022-12-08T10:47:26.995Z,3.30
2022-12-08T10:50:31.963Z,3.37
2022-12-08T10:53:12.879Z,3.44
2022-12-08T10:55:51.479Z,3.58
2022-12-08T10:58:34.189Z,3.77
2022-12-08T11:01:21.634Z,3.94
2022-12-08T11:04:18.929Z,4.09
2022-12-08T11:06:47.632Z,4.18
2022-12-08T11:09:20.502Z,4.35
2022-12-08T11:12:06.557Z,4.33
2022-12-08T11:14:42.274Z,4.11
2022-12-08T11:17:24.917Z,3.76
2022-12-08T11:19:59.482Z,3.52
2022-12-08T11:22:29.260Z,3.45
2022-12-08T11:25:13.206Z,3.40
2022-12-08T11:27:45.700Z,3.34
2022-12-08T11:30:17.866Z,3.34
2022-12-08T11:32:48.261Z,3.43
2022-12-08T11:35:27.100Z,3.57
2022-12-08T11:38:08.121Z,3.70
2022-12-08T11:40:44.715Z,3.71
2022-12-08T11:43:30.267Z,3.74
2022-12-08T11:46:02.525Z,3.66
2022-12-08T11:48:33.691Z,3.65
2022-12-08T11:51:12.310Z,3.59
2022-12-08T11:53:50.830Z,3.65
2022-12-08T11:56:27.886Z,3.73
2022-12-08T11:58:59.490Z,3.84
2022-12-08T12:01:27.071Z,3.96
2022-12-08T12:04:29.577Z,4.06
2022-12-08T12:07:26.527Z,4.20
2022-12-08T12:10:07.404Z,4.32
2022-12-08T12:13:19.142Z,4.45
2022-12-08T12:16:01.409Z,4.40
2022-12-08T12:18:38.738Z,4.31
2022-12-08T12:21:19.384Z,4.18
2022-12-08T12:23:48.290Z,4.07
2022-12-08T12:26:23.982Z,3.99
2022-12-08T12:29:03.225Z,3.86
2022-12-08T12:31:43.173Z,3.88
2022-12-08T12:34:25.281Z,3.85
2022-12-08T12:37:03.808Z,3.96
2022-12-08T12:39:34.173Z,4.02
2022-12-08T12:42:05.502Z,4.13
2022-12-08T12:44:32.807Z,4.26
2022-12-08T12:47:08.672Z,4.32
2022-12-08T12:49:43.796Z,4.20
2022-12-08T12:52:10.666Z,4.17
2022-12-08T12:54:42.856Z,4.15
2022-12-08T12:57:09.564Z,4.09
2022-12-08T12:59:50.090Z,4.07
2022-12-08T13:02:31.442Z,4.10
2022-12-08T13:05:11.372Z,4.12
2022-12-08T13:07:46.675Z,4.16
2022-12-08T13:10:21.914Z,4.22
2022-12-08T13:13:02.179Z,4.17
2022-12-08T13:15:41.648Z,4.21
2022-12-08T13:18:20.290Z,4.35
2022-12-08T13:20:51.885Z,4.37
2022-12-08T13:23:41.359Z,4.35
2022-12-08T13:26:18.634Z,4.40
2022-12-08T13:29:08.676Z,4.44
2022-12-08T13:31:48.312Z,4.44
2022-12-08T13:34:32.007Z,4.47
2022-12-08T13:37:10.845Z,4.48
2022-12-08T13:39:40.570Z,4.55
2022-12-08T13:42:32.741Z,4.58
2022-12-08T13:45:48.796Z,4.58
2022-12-08T13:48:59.099Z,4.59
2022-12-08T13:53:22.434Z,4.57
2022-12-08T13:57:24.474Z,4.47
2022-12-08T13:59:51.612Z,4.33
2022-12-08T14:02:26.815Z,4.11
2022-12-08T14:05:17.311Z,3.93
2022-12-08T14:07:43.132Z,3.78
2022-12-08T14:10:18.794Z,3.67
2022-12-08T14:12:48.063Z,3.59
2022-12-08T14:15:16.056Z,3.58
2022-12-08T14:17:51.993Z,3.60
2022-12-08T14:20:29.842Z,3.59
2022-12-08T14:22:57.834Z,3.51
2022-12-08T14:25:26.856Z,3.48
2022-12-08T14:28:03.130Z,3.44
2022-12-08T14:30:34.717Z,3.44
2022-12-08T14:33:05.659Z,3.46
2022-12-08T14:35:33.746Z,3.52
2022-12-08T14:38:02.933Z,3.56
2022-12-08T14:40:41.881Z,3.57
2022-12-08T14:43:08.831Z,3.50
2022-12-08T14:45:41.718Z,3.43
2022-12-08T14:48:36.711Z,3.34
2022-12-08T14:51:03.518Z,3.22
2022-12-08T14:53:39.748Z,3.06
2022-12-08T14:56:18.873Z,2.88
2022-12-08T14:58:46.954Z,2.75
2022-12-08T15:01:17.477Z,2.60
2022-12-08T15:03:50.599Z,2.48
2022-12-08T15:06:21.120Z,2.40
2022-12-08T15:08:59.028Z,2.28
2022-12-08T15:11:35.417Z,2.20
2022-12-08T15:14:03.084Z,2.14
2022-12-08T15:16:38.379Z,2.02
2022-12-08T15:19:16.976Z,1.88
2022-12-08T15:21:45.375Z,1.75
2022-12-08T15:24:13.816Z,1.69
2022-12-08T15:26:50.476Z,1.59
2022-12-08T15:29:23.695Z,1.57
2022-12-08T15:31:52.886Z,1.53
2022-12-08T15:34:20.813Z,1.45
2022-12-08T15:36:49.911Z,1.37
2022-12-08T15:39:43.873Z,1.35
2022-12-08T15:42:15.556Z,1.32
2022-12-08T15:44:42.757Z,1.33
2022-12-08T15:47:22.408Z,1.29
2022-12-08T15:49:50.608Z,1.29
2022-12-08T15:52:20.175Z,1.24
2022-12-08T15:54:47.625Z,1.14
2022-12-08T16:00:54.704Z,0.96
2022-12-08T16:07:04.712Z,0.73
2022-12-08T16:09:17.563Z,0.62
2022-12-08T16:12:08.518Z,0.58
2022-12-08T16:17:25.298Z,0.46
2022-12-08T16:19:52.179Z,0.45
2022-12-08T16:25:24.520Z,0.43
2022-12-08T16:28:44.823Z,0.45
2022-12-08T16:30:41.885Z,0.44
2022-12-08T16:33:11.417Z,0.40
2022-12-08T16:35:38.797Z,0.38
2022-12-08T16:38:05.935Z,0.30
2022-12-08T16:40:33.043Z,0.23
2022-12-08T16:42:59.958Z,0.23
2022-12-08T16:45:30.607Z,0.20
2022-12-08T16:48:01.352Z,0.19
2022-12-08T16:50:33.970Z,0.15
2022-12-08T16:53:09.865Z,0.07
2022-12-08T16:55:36.896Z,0.07
2022-12-08T16:58:03.809Z,0.04
2022-12-08T17:00:39.465Z,0.03
2022-12-08T17:03:10.913Z,-0.03
2022-12-08T17:05:40.412Z,-0.03
2022-12-08T17:08:08.172Z,-0.03
2022-12-08T17:10:39.400Z,-0.01
2022-12-08T17:13:06.948Z,-0.01
2022-12-08T17:15:33.860Z,0.02
2022-12-08T17:18:00.863Z,0.05
2022-12-08T17:20:29.218Z,0.02
2022-12-08T17:22:58.222Z,0.02
2022-12-08T17:25:26.671Z,0.00
2022-12-08T17:27:53.847Z,0.03
2022-12-08T17:30:20.713Z,0.05
2022-12-08T17:32:47.558Z,0.01
2022-12-08T17:35:15.415Z,-0.03
2022-12-08T17:37:43.593Z,-0.07
2022-12-08T17:40:11.290Z,-0.12
2022-12-08T17:42:38.930Z,-0.16
2022-12-08T17:45:07.387Z,-0.20
2022-12-08T17:47:34.555Z,-0.21
2022-12-08T17:50:02.426Z,-0.21
2022-12-08T17:52:29.523Z,-0.25
2022-12-08T17:54:56.459Z,-0.29
2022-12-08T17:57:23.702Z,-0.29
2022-12-08T17:59:50.589Z,-0.27
2022-12-08T18:02:17.608Z,-0.26
2022-12-08T18:04:44.503Z,-0.31
2022-12-08T18:07:11.304Z,-0.41
2022-12-08T18:09:38.262Z,-0.47
2022-12-08T18:12:05.681Z,-0.50
2022-12-08T18:14:32.602Z,-0.51
2022-12-08T18:16:59.505Z,-0.48
2022-12-08T18:19:26.640Z,-0.50
2022-12-08T18:21:53.641Z,-0.49
2022-12-08T18:24:23.207Z,-0.54
2022-12-08T18:26:52.604Z,-0.62
2022-12-08T18:29:21.148Z,-0.64
2022-12-08T18:31:48.360Z,-0.64
2022-12-08T18:34:15.514Z,-0.64
2022-12-08T18:36:42.462Z,-0.62
2022-12-08T18:39:24.671Z,-0.67
2022-12-08T18:41:52.545Z,-0.70
2022-12-08T18:44:19.545Z,-0.71
2022-12-08T18:46:46.539Z,-0.77
2022-12-08T18:49:15.931Z,-0.80
2022-12-08T18:51:43.813Z,-0.86
2022-12-08T18:54:11.733Z,-0.89
2022-12-08T18:56:38.943Z,-0.93
2022-12-08T18:59:08.719Z,-0.96
2022-12-08T19:01:37.853Z,-0.94
2022-12-08T19:06:54.436Z,-1.02
2022-12-08T19:09:22.697Z,-1.02
2022-12-08T19:11:49.734Z,-1.03
2022-12-08T19:14:16.854Z,-1.02
2022-12-08T19:16:43.818Z,-1.02
2022-12-08T19:19:10.672Z,-1.03
2022-12-08T19:21:43.035Z,-1.00
2022-12-08T19:24:13.129Z,-0.99
2022-12-08T19:26:40.003Z,-0.94
2022-12-08T19:29:07.299Z,-0.92
2022-12-08T19:31:34.336Z,-0.91
2022-12-08T19:34:01.231Z,-0.86
2022-12-08T19:36:31.804Z,-0.84
2022-12-08T19:39:18.099Z,-0.87
2022-12-08T19:42:03.958Z,-0.96
2022-12-08T19:44:50.033Z,-1.03
2022-12-08T19:47:16.932Z,-1.07
2022-12-08T19:49:43.794Z,-1.09
2022-12-08T19:52:10.952Z,-1.11
2022-12-08T19:54:38.211Z,-1.13
2022-12-08T19:57:05.315Z,-1.08
2022-12-08T19:59:32.361Z,-1.08
2022-12-08T20:01:59.352Z,-1.08
2022-12-08T20:04:27.452Z,-1.11
2022-12-08T20:06:55.956Z,-1.14
2022-12-08T20:09:23.256Z,-1.14
2022-12-08T20:11:54.832Z,-1.18
2022-12-08T20:14:23.380Z,-1.18
2022-12-08T20:16:50.735Z,-1.18
2022-12-08T20:19:17.841Z,-1.20
2022-12-08T20:21:44.773Z,-1.28
2022-12-08T20:24:11.685Z,-1.33
2022-12-08T20:26:38.545Z,-1.39
2022-12-08T20:29:05.651Z,-1.42
2022-12-08T20:31:33.496Z,-1.47
2022-12-08T20:34:01.569Z,-1.50
2022-12-08T20:36:28.694Z,-1.50
2022-12-08T20:38:55.927Z,-1.54
2022-12-08T20:41:26.039Z,-1.55
2022-12-08T20:43:53.289Z,-1.56
2022-12-08T20:46:21.243Z,-1.54
2022-12-08T20:48:48.797Z,-1.56
2022-12-08T20:51:19.665Z,-1.58
2022-12-08T20:53:47.729Z,-1.61
2022-12-08T20:56:17.964Z,-1.61
2022-12-08T20:58:46.040Z,-1.60
2022-12-08T21:01:15.514Z,-1.62
2022-12-08T21:03:43.624Z,-1.63
2022-12-08T21:06:11.846Z,-1.62
2022-12-08T21:08:38.904Z,-1.64
2022-12-08T21:11:07.165Z,-1.67
2022-12-08T21:13:34.314Z,-1.61
2022-12-08T21:16:01.442Z,-1.59
2022-12-08T21:18:28.848Z,-1.61
2022-12-08T21:21:05.842Z,-1.60
2022-12-08T21:23:33.661Z,-1.62
2022-12-08T21:26:01.584Z,-1.62
2022-12-08T21:28:28.588Z,-1.63
2022-12-08T21:30:55.456Z,-1.61
2022-12-08T21:33:22.529Z,-1.64
2022-12-08T21:35:49.941Z,-1.74
2022-12-08T21:38:16.822Z,-1.79
2022-12-08T21:40:43.647Z,-1.83
2022-12-08T21:43:12.131Z,-1.85
2022-12-08T21:45:39.083Z,-1.84
2022-12-08T21:48:11.281Z,-1.83
2022-12-08T21:50:39.388Z,-1.86
2022-12-08T21:53:06.557Z,-1.81
2022-12-08T21:55:33.486Z,-1.82
2022-12-08T21:58:02.574Z,-1.82
2022-12-08T22:00:29.495Z,-1.86
2022-12-08T22:02:57.650Z,-1.85
2022-12-08T22:05:25.389Z,-1.92
2022-12-08T22:07:52.353Z,-1.97
2022-12-08T22:10:21.053Z,-2.06
2022-12-08T22:12:48.339Z,-2.10
2022-12-08T22:15:15.440Z,-2.12
2022-12-08T22:17:44.015Z,-2.15
2022-12-08T22:20:14.653Z,-2.17
2022-12-08T22:22:41.839Z,-2.17
2022-12-08T22:25:13.247Z,-2.17
2022-12-08T22:27:41.538Z,-2.14
2022-12-08T22:30:09.752Z,-2.05
2022-12-08T22:32:37.168Z,-2.01
2022-12-08T22:35:04.420Z,-1.96
2022-12-08T22:37:31.222Z,-1.96
2022-12-08T22:39:58.108Z,-1.98
2022-12-08T22:42:25.232Z,-1.97
2022-12-08T22:44:52.237Z,-1.95
2022-12-08T22:47:19.313Z,-1.93
2022-12-08T22:49:46.333Z,-1.99
2022-12-08T22:52:13.149Z,-2.01
2022-12-08T22:54:40.033Z,-2.00
2022-12-08T22:57:07.242Z,-2.03
2022-12-08T22:59:34.657Z,-2.03
2022-12-08T23:02:01.793Z,-2.08
2022-12-08T23:04:29.209Z,-2.13
2022-12-08T23:06:56.340Z,-2.17
2022-12-08T23:09:23.978Z,-2.17
2022-12-08T23:11:51.522Z,-2.15
2022-12-08T23:14:18.665Z,-2.12
2022-12-08T23:16:45.696Z,-2.14
2022-12-08T23:19:14.140Z,-2.14
2022-12-08T23:21:40.926Z,-2.16
2022-12-08T23:24:07.785Z,-2.18
2022-12-08T23:26:35.584Z,-2.24
2022-12-08T23:29:02.500Z,-2.33
2022-12-08T23:31:29.408Z,-2.34
2022-12-08T23:33:57.034Z,-2.37
2022-12-08T23:36:26.501Z,-2.41
2022-12-08T23:38:54.249Z,-2.48
2022-12-08T23:41:22.046Z,-2.51
2022-12-08T23:43:51.304Z,-2.51
2022-12-08T23:46:20.571Z,-2.48
2022-12-08T23:48:48.016Z,-2.41
2022-12-08T23:51:16.076Z,-2.36
2022-12-08T23:53:44.065Z,-2.32
2022-12-08T23:56:13.992Z,-2.30
2022-12-08T23:58:42.197Z,-2.21
